createdAt,value
2019-03-22T00:03:45.014Z,19.20
2019-03-22T00:30:42.871Z,19.00
2019-03-22T00:43:50.343Z,19.00
2019-03-22T00:56:57.651Z,19.00
2019-03-22T01:23:08.020Z,19.00
2019-03-22T01:36:15.442Z,19.00
2019-03-22T01:49:22.741Z,19.00
2019-03-22T02:02:30.018Z,19.00
2019-03-22T02:29:34.027Z,19.00
2019-03-22T02:42:56.862Z,19.00
2019-03-22T02:56:19.617Z,19.00
2019-03-22T03:09:42.438Z,19.00
2019-03-22T03:23:05.278Z,19.00
2019-03-22T03:36:28.101Z,19.00
2019-03-22T03:49:50.917Z,19.00
2019-03-22T04:29:21.778Z,19.00
2019-03-22T04:55:34.625Z,19.00
2019-03-22T05:21:47.466Z,19.00
2019-03-22T05:34:54.650Z,19.00
2019-03-22T05:48:01.829Z,19.00
2019-03-22T06:01:09.010Z,19.00
2019-03-22T06:14:16.181Z,19.00
2019-03-22T06:27:23.333Z,19.00
2019-03-22T06:40:47.256Z,19.00
2019-03-22T06:54:10.103Z,19.00
2019-03-22T07:07:32.929Z,18.10
2019-03-22T07:20:55.771Z,18.80
2019-03-22T07:34:18.534Z,18.90
2019-03-22T07:47:41.338Z,19.00
2019-03-22T08:01:04.181Z,19.10
2019-03-22T08:27:28.728Z,19.20
2019-03-22T08:40:35.952Z,19.20
2019-03-22T08:53:54.391Z,19.20
2019-03-22T09:06:50.460Z,19.20
2019-03-22T09:19:57.811Z,19.20
2019-03-22T09:33:22.056Z,19.20
2019-03-22T09:59:46.444Z,19.10
2019-03-22T10:12:53.598Z,19.20
2019-03-22T10:26:00.862Z,19.20
2019-03-22T10:39:08.071Z,19.30
2019-03-22T11:05:18.601Z,19.20
2019-03-22T11:18:25.809Z,19.20
2019-03-22T11:31:39.519Z,19.20
2019-03-22T11:44:40.215Z,19.40
2019-03-22T11:57:48.008Z,19.50
2019-03-22T12:10:54.622Z,19.50
2019-03-22T12:24:18.723Z,19.50
2019-03-22T12:37:41.171Z,19.40
2019-03-22T12:51:04.007Z,19.40
2019-03-22T13:04:26.799Z,19.50
2019-03-22T13:17:49.617Z,19.60
2019-03-22T13:31:12.426Z,19.70
2019-03-22T13:44:35.242Z,19.70
2019-03-22T14:37:12.512Z,19.80
2019-03-22T15:03:25.431Z,19.90
2019-03-22T15:16:32.586Z,19.80
2019-03-22T15:29:39.755Z,19.80
2019-03-22T15:42:46.952Z,19.70
2019-03-22T15:55:54.131Z,19.80
2019-03-22T16:09:01.264Z,19.80
2019-03-22T16:22:25.199Z,19.70
2019-03-22T16:35:48.025Z,19.70
2019-03-22T16:49:10.828Z,19.70
2019-03-22T17:15:35.275Z,19.60
2019-03-22T17:41:48.221Z,19.70
2019-03-22T17:54:55.400Z,19.70
2019-03-22T18:08:02.640Z,19.60
2019-03-22T18:21:09.828Z,19.70
2019-03-22T18:34:16.997Z,19.70
2019-03-22T19:00:26.755Z,19.70
2019-03-22T19:13:33.938Z,19.70
2019-03-22T19:39:46.075Z,19.50
2019-03-22T19:52:53.257Z,19.30
2019-03-22T20:06:00.468Z,19.50
2019-03-22T20:19:07.648Z,19.50
2019-03-22T20:32:14.835Z,19.50
2019-03-22T20:45:23.940Z,19.50
2019-03-22T20:58:45.858Z,19.60
2019-03-22T21:12:08.617Z,19.60
2019-03-22T21:25:32.405Z,19.50
2019-03-22T21:38:54.482Z,19.40
2019-03-22T21:52:17.067Z,19.50
2019-03-22T22:18:41.629Z,19.50
2019-03-22T22:31:48.980Z,19.50
2019-03-22T22:58:01.144Z,19.60
2019-03-22T23:11:08.311Z,19.60
2019-03-22T23:24:15.522Z,19.20
2019-03-22T23:37:22.730Z,19.40
